EDDH/HAM METAR and TAF weather

Enter ICAO airport designator
Station Type Date Time Source
EDDH METAR 2021/10/22 20:20 UTC NOAA

EDDH 222020Z 26011KT 9999 -SHRA FEW030CB SCT043 07/04 Q1014 NOSIG


Station Type Date Time Source
EDDH Decoded METAR 2021/10/22 20:20 UTC NOAA

Hamburg-Fuhlsbuettel, Germany (EDDH) 53-38N 010-00E 15M
Oct 22, 2021 - 04:20 PM EDT / 2021.10.22 2020 UTC
Wind: from the W (260 degrees) at 13 MPH (11 KT):0
Visibility: greater than 7 mile(s):0
Sky conditions: partly cloudy
Weather: light rain showers; Cumulonimbus clouds observed
Temperature: 44 F (7 C)
Dew Point: 39 F (4 C)
Relative Humidity: 81%
Pressure (altimeter): 29.94 in. Hg (1014 hPa)
ob: EDDH 222020Z 26011KT 9999 -SHRA FEW030CB SCT043 07/04 Q1014 NOSIG
cycle: 20

Station Type Date Time Source
EDDH TAF 2021/10/22 18:27 UTC NOAA

TAF EDDH 221700Z 2218/2324 26008G18KT 9999 SCT030
BECMG 2315/2317 22004KT

Example: see airport list